sensor_id;sensor_type;location;lat;lon;timestamp;P1;durP1;ratioP1;P2;durP2;ratioP2
18610;SDS011;9435;52.122;5.502;2024-02-15T00:02:14;42.35;;;16.30;;
18610;SDS011;9435;52.122;5.502;2024-02-15T00:04:41;40.53;;;15.55;;
18610;SDS011;9435;52.122;5.502;2024-02-15T00:07:11;39.53;;;16.00;;
18610;SDS011;9435;52.122;5.502;2024-02-15T00:09:38;42.83;;;16.80;;
18610;SDS011;9435;52.122;5.502;2024-02-15T00:12:05;40.95;;;16.08;;
18610;SDS011;9435;52.122;5.502;2024-02-15T00:14:33;39.35;;;16.73;;
18610;SDS011;9435;52.122;5.502;2024-02-15T00:17:00;41.65;;;15.63;;
18610;SDS011;9435;52.122;5.502;2024-02-15T00:19:27;37.45;;;15.68;;
18610;SDS011;9435;52.122;5.502;2024-02-15T00:21:55;41.63;;;16.35;;
18610;SDS011;9435;52.122;5.502;2024-02-15T00:24:24;42.25;;;16.25;;
18610;SDS011;9435;52.122;5.502;2024-02-15T00:26:51;34.33;;;14.52;;
18610;SDS011;9435;52.122;5.502;2024-02-15T00:29:18;39.83;;;15.32;;
18610;SDS011;9435;52.122;5.502;2024-02-15T00:31:45;37.65;;;15.27;;
18610;SDS011;9435;52.122;5.502;2024-02-15T00:34:14;33.22;;;14.50;;
18610;SDS011;9435;52.122;5.502;2024-02-15T00:36:42;39.78;;;14.55;;
18610;SDS011;9435;52.122;5.502;2024-02-15T00:39:10;35.85;;;14.32;;
18610;SDS011;9435;52.122;5.502;2024-02-15T00:41:39;34.75;;;14.20;;
18610;SDS011;9435;52.122;5.502;2024-02-15T00:44:07;35.08;;;14.75;;
18610;SDS011;9435;52.122;5.502;2024-02-15T00:46:35;36.20;;;14.40;;
18610;SDS011;9435;52.122;5.502;2024-02-15T00:49:02;29.50;;;13.30;;
18610;SDS011;9435;52.122;5.502;2024-02-15T00:51:31;33.58;;;14.45;;
18610;SDS011;9435;52.122;5.502;2024-02-15T00:53:59;35.55;;;15.32;;
18610;SDS011;9435;52.122;5.502;2024-02-15T00:56:26;35.97;;;13.90;;
18610;SDS011;9435;52.122;5.502;2024-02-15T00:58:56;34.15;;;14.23;;
18610;SDS011;9435;52.122;5.502;2024-02-15T01:01:23;38.80;;;13.85;;
18610;SDS011;9435;52.122;5.502;2024-02-15T01:03:50;37.80;;;14.43;;
18610;SDS011;9435;52.122;5.502;2024-02-15T01:06:17;34.72;;;14.13;;
18610;SDS011;9435;52.122;5.502;2024-02-15T01:08:44;30.23;;;14.32;;
18610;SDS011;9435;52.122;5.502;2024-02-15T01:11:11;30.40;;;13.77;;
18610;SDS011;9435;52.122;5.502;2024-02-15T01:13:39;30.20;;;13.80;;
18610;SDS011;9435;52.122;5.502;2024-02-15T01:16:07;30.08;;;13.68;;
18610;SDS011;9435;52.122;5.502;2024-02-15T01:18:35;30.27;;;14.80;;
18610;SDS011;9435;52.122;5.502;2024-02-15T01:21:03;29.95;;;14.63;;
18610;SDS011;9435;52.122;5.502;2024-02-15T01:23:31;37.53;;;15.57;;
18610;SDS011;9435;52.122;5.502;2024-02-15T01:26:00;37.25;;;16.15;;
18610;SDS011;9435;52.122;5.502;2024-02-15T01:28:27;40.22;;;19.58;;
18610;SDS011;9435;52.122;5.502;2024-02-15T01:30:54;47.35;;;20.15;;
18610;SDS011;9435;52.122;5.502;2024-02-15T01:33:23;54.50;;;22.75;;
18610;SDS011;9435;52.122;5.502;2024-02-15T01:35:50;52.17;;;23.33;;
18610;SDS011;9435;52.122;5.502;2024-02-15T01:38:17;58.08;;;25.40;;
18610;SDS011;9435;52.122;5.502;2024-02-15T01:40:44;56.20;;;25.42;;
18610;SDS011;9435;52.122;5.502;2024-02-15T01:43:14;60.20;;;26.73;;
18610;SDS011;9435;52.122;5.502;2024-02-15T01:45:41;63.80;;;27.48;;
18610;SDS011;9435;52.122;5.502;2024-02-15T01:48:08;67.97;;;28.48;;
18610;SDS011;9435;52.122;5.502;2024-02-15T01:50:37;60.25;;;27.13;;
18610;SDS011;9435;52.122;5.502;2024-02-15T01:53:07;65.60;;;27.70;;
18610;SDS011;9435;52.122;5.502;2024-02-15T01:55:35;62.80;;;26.88;;
18610;SDS011;9435;52.122;5.502;2024-02-15T01:58:04;64.60;;;27.40;;
18610;SDS011;9435;52.122;5.502;2024-02-15T02:00:32;61.72;;;26.80;;
18610;SDS011;9435;52.122;5.502;2024-02-15T02:02:59;60.00;;;26.42;;
18610;SDS011;9435;52.122;5.502;2024-02-15T02:05:29;59.83;;;26.02;;
18610;SDS011;9435;52.122;5.502;2024-02-15T02:07:58;59.33;;;25.42;;
18610;SDS011;9435;52.122;5.502;2024-02-15T02:10:29;60.33;;;25.60;;
18610;SDS011;9435;52.122;5.502;2024-02-15T02:12:58;52.25;;;23.92;;
18610;SDS011;9435;52.122;5.502;2024-02-15T02:15:26;57.30;;;24.33;;
18610;SDS011;9435;52.122;5.502;2024-02-15T02:17:54;56.22;;;23.65;;
18610;SDS011;9435;52.122;5.502;2024-02-15T02:20:21;49.55;;;23.40;;
18610;SDS011;9435;52.122;5.502;2024-02-15T02:22:48;48.92;;;22.30;;
18610;SDS011;9435;52.122;5.502;2024-02-15T02:25:21;49.65;;;22.90;;
18610;SDS011;9435;52.122;5.502;2024-02-15T02:27:51;49.88;;;22.42;;
18610;SDS011;9435;52.122;5.502;2024-02-15T02:30:19;54.67;;;22.13;;
18610;SDS011;9435;52.122;5.502;2024-02-15T02:32:47;46.10;;;21.80;;
18610;SDS011;9435;52.122;5.502;2024-02-15T02:35:14;55.05;;;22.27;;
18610;SDS011;9435;52.122;5.502;2024-02-15T02:37:42;49.05;;;21.33;;
18610;SDS011;9435;52.122;5.502;2024-02-15T02:40:10;44.88;;;20.77;;
18610;SDS011;9435;52.122;5.502;2024-02-15T02:42:47;44.83;;;20.45;;
18610;SDS011;9435;52.122;5.502;2024-02-15T02:45:16;51.63;;;21.48;;
18610;SDS011;9435;52.122;5.502;2024-02-15T02:47:44;44.05;;;20.15;;
18610;SDS011;9435;52.122;5.502;2024-02-15T02:50:12;43.28;;;20.52;;
18610;SDS011;9435;52.122;5.502;2024-02-15T02:52:40;48.10;;;20.75;;
18610;SDS011;9435;52.122;5.502;2024-02-15T02:55:07;44.38;;;20.48;;
18610;SDS011;9435;52.122;5.502;2024-02-15T02:57:34;45.70;;;20.50;;
18610;SDS011;9435;52.122;5.502;2024-02-15T03:00:04;44.20;;;19.70;;
18610;SDS011;9435;52.122;5.502;2024-02-15T03:02:35;48.15;;;19.50;;
18610;SDS011;9435;52.122;5.502;2024-02-15T03:05:03;48.53;;;19.90;;
18610;SDS011;9435;52.122;5.502;2024-02-15T03:07:32;46.80;;;19.55;;
18610;SDS011;9435;52.122;5.502;2024-02-15T03:10:00;42.20;;;19.17;;
18610;SDS011;9435;52.122;5.502;2024-02-15T03:12:29;41.53;;;18.83;;
18610;SDS011;9435;52.122;5.502;2024-02-15T03:14:56;42.22;;;18.20;;
18610;SDS011;9435;52.122;5.502;2024-02-15T03:17:25;45.33;;;18.98;;
18610;SDS011;9435;52.122;5.502;2024-02-15T03:19:52;44.25;;;18.33;;
18610;SDS011;9435;52.122;5.502;2024-02-15T03:22:20;43.78;;;18.35;;
18610;SDS011;9435;52.122;5.502;2024-02-15T03:24:50;41.47;;;17.35;;
18610;SDS011;9435;52.122;5.502;2024-02-15T03:27:17;39.95;;;17.48;;
18610;SDS011;9435;52.122;5.502;2024-02-15T03:29:48;43.35;;;17.02;;
18610;SDS011;9435;52.122;5.502;2024-02-15T03:32:16;42.85;;;16.83;;
18610;SDS011;9435;52.122;5.502;2024-02-15T03:34:45;48.78;;;17.10;;
18610;SDS011;9435;52.122;5.502;2024-02-15T03:37:12;41.00;;;16.42;;
18610;SDS011;9435;52.122;5.502;2024-02-15T03:39:39;40.60;;;15.77;;
18610;SDS011;9435;52.122;5.502;2024-02-15T03:42:06;35.67;;;14.57;;
18610;SDS011;9435;52.122;5.502;2024-02-15T03:44:33;39.45;;;15.35;;
18610;SDS011;9435;52.122;5.502;2024-02-15T03:47:00;41.10;;;15.32;;
18610;SDS011;9435;52.122;5.502;2024-02-15T03:49:27;40.13;;;15.23;;
18610;SDS011;9435;52.122;5.502;2024-02-15T03:51:57;36.67;;;14.35;;
18610;SDS011;9435;52.122;5.502;2024-02-15T03:54:24;36.45;;;14.52;;
18610;SDS011;9435;52.122;5.502;2024-02-15T03:56:50;35.45;;;14.52;;
18610;SDS011;9435;52.122;5.502;2024-02-15T03:59:19;33.65;;;14.20;;
18610;SDS011;9435;52.122;5.502;2024-02-15T04:01:50;43.75;;;14.60;;
18610;SDS011;9435;52.122;5.502;2024-02-15T04:04:17;31.75;;;13.80;;
18610;SDS011;9435;52.122;5.502;2024-02-15T04:06:46;35.92;;;13.63;;
18610;SDS011;9435;52.122;5.502;2024-02-15T04:09:14;36.13;;;13.40;;
18610;SDS011;9435;52.122;5.502;2024-02-15T04:11:42;33.95;;;13.07;;
18610;SDS011;9435;52.122;5.502;2024-02-15T04:14:12;33.97;;;12.90;;
18610;SDS011;9435;52.122;5.502;2024-02-15T04:16:39;32.42;;;12.70;;
18610;SDS011;9435;52.122;5.502;2024-02-15T04:19:06;28.42;;;11.88;;
18610;SDS011;9435;52.122;5.502;2024-02-15T04:21:33;33.78;;;12.85;;
18610;SDS011;9435;52.122;5.502;2024-02-15T04:24:00;41.20;;;13.27;;
18610;SDS011;9435;52.122;5.502;2024-02-15T04:26:28;26.95;;;12.48;;
18610;SDS011;9435;52.122;5.502;2024-02-15T04:28:57;26.67;;;12.05;;
18610;SDS011;9435;52.122;5.502;2024-02-15T04:31:24;28.13;;;12.27;;
18610;SDS011;9435;52.122;5.502;2024-02-15T04:33:52;27.45;;;11.73;;
18610;SDS011;9435;52.122;5.502;2024-02-15T04:36:20;32.72;;;12.25;;
18610;SDS011;9435;52.122;5.502;2024-02-15T04:38:50;33.45;;;12.65;;
18610;SDS011;9435;52.122;5.502;2024-02-15T04:41:17;24.63;;;11.10;;
18610;SDS011;9435;52.122;5.502;2024-02-15T04:43:49;28.88;;;11.40;;
18610;SDS011;9435;52.122;5.502;2024-02-15T04:46:16;24.35;;;10.82;;
18610;SDS011;9435;52.122;5.502;2024-02-15T04:48:46;29.83;;;11.00;;
18610;SDS011;9435;52.122;5.502;2024-02-15T04:51:14;26.38;;;10.55;;
18610;SDS011;9435;52.122;5.502;2024-02-15T04:53:42;28.52;;;11.27;;
18610;SDS011;9435;52.122;5.502;2024-02-15T04:56:11;28.48;;;10.50;;
18610;SDS011;9435;52.122;5.502;2024-02-15T04:58:40;29.08;;;10.80;;
18610;SDS011;9435;52.122;5.502;2024-02-15T05:01:13;25.65;;;9.82;;
18610;SDS011;9435;52.122;5.502;2024-02-15T05:03:41;30.08;;;10.93;;
18610;SDS011;9435;52.122;5.502;2024-02-15T05:06:09;25.55;;;10.65;;
18610;SDS011;9435;52.122;5.502;2024-02-15T05:08:38;33.40;;;10.55;;
18610;SDS011;9435;52.122;5.502;2024-02-15T05:11:07;25.65;;;11.00;;
18610;SDS011;9435;52.122;5.502;2024-02-15T05:13:40;31.27;;;11.13;;
18610;SDS011;9435;52.122;5.502;2024-02-15T05:16:07;28.65;;;11.05;;
18610;SDS011;9435;52.122;5.502;2024-02-15T05:18:35;28.40;;;11.05;;
18610;SDS011;9435;52.122;5.502;2024-02-15T05:21:05;27.20;;;11.57;;
18610;SDS011;9435;52.122;5.502;2024-02-15T05:23:34;28.38;;;11.52;;
18610;SDS011;9435;52.122;5.502;2024-02-15T05:26:01;28.77;;;11.45;;
18610;SDS011;9435;52.122;5.502;2024-02-15T05:28:29;29.80;;;11.63;;
18610;SDS011;9435;52.122;5.502;2024-02-15T05:31:12;29.85;;;12.15;;
18610;SDS011;9435;52.122;5.502;2024-02-15T05:33:43;26.65;;;12.25;;
18610;SDS011;9435;52.122;5.502;2024-02-15T05:36:12;31.42;;;12.68;;
18610;SDS011;9435;52.122;5.502;2024-02-15T05:38:40;30.95;;;12.93;;
18610;SDS011;9435;52.122;5.502;2024-02-15T05:41:10;32.00;;;13.50;;
18610;SDS011;9435;52.122;5.502;2024-02-15T05:43:38;31.63;;;14.43;;
18610;SDS011;9435;52.122;5.502;2024-02-15T05:46:06;40.63;;;14.35;;
18610;SDS011;9435;52.122;5.502;2024-02-15T05:48:34;29.77;;;13.90;;
18610;SDS011;9435;52.122;5.502;2024-02-15T05:51:03;28.48;;;14.00;;
18610;SDS011;9435;52.122;5.502;2024-02-15T05:53:31;27.73;;;13.85;;
18610;SDS011;9435;52.122;5.502;2024-02-15T05:56:01;31.83;;;14.82;;
18610;SDS011;9435;52.122;5.502;2024-02-15T05:58:29;33.15;;;14.60;;
18610;SDS011;9435;52.122;5.502;2024-02-15T06:00:56;33.28;;;14.55;;
18610;SDS011;9435;52.122;5.502;2024-02-15T06:03:26;30.55;;;14.90;;
18610;SDS011;9435;52.122;5.502;2024-02-15T06:05:53;29.00;;;14.55;;
18610;SDS011;9435;52.122;5.502;2024-02-15T06:08:24;31.77;;;14.70;;
18610;SDS011;9435;52.122;5.502;2024-02-15T06:10:52;33.63;;;14.75;;
18610;SDS011;9435;52.122;5.502;2024-02-15T06:13:19;30.75;;;15.18;;
18610;SDS011;9435;52.122;5.502;2024-02-15T06:15:47;34.85;;;14.57;;
18610;SDS011;9435;52.122;5.502;2024-02-15T06:18:18;29.40;;;14.45;;
18610;SDS011;9435;52.122;5.502;2024-02-15T06:20:46;31.77;;;14.38;;
18610;SDS011;9435;52.122;5.502;2024-02-15T06:23:15;27.02;;;13.35;;
18610;SDS011;9435;52.122;5.502;2024-02-15T06:25:44;30.55;;;14.30;;
18610;SDS011;9435;52.122;5.502;2024-02-15T06:28:12;33.42;;;14.98;;
18610;SDS011;9435;52.122;5.502;2024-02-15T06:31:00;30.00;;;14.43;;
18610;SDS011;9435;52.122;5.502;2024-02-15T06:33:44;29.77;;;14.73;;
18610;SDS011;9435;52.122;5.502;2024-02-15T06:36:28;32.53;;;15.07;;
18610;SDS011;9435;52.122;5.502;2024-02-15T06:39:13;30.80;;;15.13;;
18610;SDS011;9435;52.122;5.502;2024-02-15T06:41:59;30.17;;;14.95;;
18610;SDS011;9435;52.122;5.502;2024-02-15T06:44:27;32.83;;;15.35;;
18610;SDS011;9435;52.122;5.502;2024-02-15T06:46:54;32.80;;;15.02;;
18610;SDS011;9435;52.122;5.502;2024-02-15T06:49:22;31.33;;;15.20;;
18610;SDS011;9435;52.122;5.502;2024-02-15T06:51:51;29.88;;;15.05;;
18610;SDS011;9435;52.122;5.502;2024-02-15T06:54:18;37.53;;;16.02;;
18610;SDS011;9435;52.122;5.502;2024-02-15T06:56:45;30.40;;;15.18;;
18610;SDS011;9435;52.122;5.502;2024-02-15T06:59:14;35.05;;;15.85;;
18610;SDS011;9435;52.122;5.502;2024-02-15T07:01:42;36.83;;;16.02;;
18610;SDS011;9435;52.122;5.502;2024-02-15T07:04:10;30.88;;;15.13;;
18610;SDS011;9435;52.122;5.502;2024-02-15T07:06:37;31.60;;;16.27;;
18610;SDS011;9435;52.122;5.502;2024-02-15T07:09:04;29.95;;;16.35;;
18610;SDS011;9435;52.122;5.502;2024-02-15T07:11:32;29.88;;;15.60;;
18610;SDS011;9435;52.122;5.502;2024-02-15T07:14:00;29.23;;;15.25;;
18610;SDS011;9435;52.122;5.502;2024-02-15T07:16:28;28.95;;;15.07;;
18610;SDS011;9435;52.122;5.502;2024-02-15T07:18:55;28.60;;;15.55;;
18610;SDS011;9435;52.122;5.502;2024-02-15T07:21:22;30.48;;;15.05;;
18610;SDS011;9435;52.122;5.502;2024-02-15T07:23:52;28.48;;;15.45;;
18610;SDS011;9435;52.122;5.502;2024-02-15T07:26:19;33.90;;;16.05;;
18610;SDS011;9435;52.122;5.502;2024-02-15T07:28:49;37.42;;;16.52;;
18610;SDS011;9435;52.122;5.502;2024-02-15T07:31:18;33.13;;;16.65;;
18610;SDS011;9435;52.122;5.502;2024-02-15T07:33:47;32.05;;;16.73;;
18610;SDS011;9435;52.122;5.502;2024-02-15T07:36:18;33.92;;;16.30;;
18610;SDS011;9435;52.122;5.502;2024-02-15T07:38:46;28.95;;;15.50;;
18610;SDS011;9435;52.122;5.502;2024-02-15T07:41:14;31.77;;;15.88;;
18610;SDS011;9435;52.122;5.502;2024-02-15T07:43:43;30.73;;;15.25;;
18610;SDS011;9435;52.122;5.502;2024-02-15T07:46:11;28.77;;;15.73;;
18610;SDS011;9435;52.122;5.502;2024-02-15T07:48:41;29.67;;;15.85;;
18610;SDS011;9435;52.122;5.502;2024-02-15T07:51:12;30.15;;;15.50;;
18610;SDS011;9435;52.122;5.502;2024-02-15T07:53:40;32.40;;;16.38;;
18610;SDS011;9435;52.122;5.502;2024-02-15T07:56:08;29.25;;;15.27;;
18610;SDS011;9435;52.122;5.502;2024-02-15T07:58:38;27.33;;;14.98;;
18610;SDS011;9435;52.122;5.502;2024-02-15T08:01:07;32.90;;;15.45;;
18610;SDS011;9435;52.122;5.502;2024-02-15T08:03:35;28.83;;;14.90;;
18610;SDS011;9435;52.122;5.502;2024-02-15T08:06:02;24.90;;;14.10;;
18610;SDS011;9435;52.122;5.502;2024-02-15T08:08:34;25.42;;;13.98;;
18610;SDS011;9435;52.122;5.502;2024-02-15T08:11:02;22.25;;;12.63;;
18610;SDS011;9435;52.122;5.502;2024-02-15T08:13:29;21.83;;;12.38;;
18610;SDS011;9435;52.122;5.502;2024-02-15T08:15:56;23.63;;;12.50;;
18610;SDS011;9435;52.122;5.502;2024-02-15T08:18:23;23.73;;;12.60;;
18610;SDS011;9435;52.122;5.502;2024-02-15T08:20:51;21.10;;;12.32;;
18610;SDS011;9435;52.122;5.502;2024-02-15T08:23:18;22.55;;;12.10;;
18610;SDS011;9435;52.122;5.502;2024-02-15T08:25:47;22.77;;;11.65;;
18610;SDS011;9435;52.122;5.502;2024-02-15T08:28:14;18.42;;;10.65;;
18610;SDS011;9435;52.122;5.502;2024-02-15T08:30:41;17.92;;;10.35;;
18610;SDS011;9435;52.122;5.502;2024-02-15T08:33:08;17.92;;;10.35;;
18610;SDS011;9435;52.122;5.502;2024-02-15T08:35:36;18.42;;;10.07;;
18610;SDS011;9435;52.122;5.502;2024-02-15T08:38:05;16.33;;;10.15;;
18610;SDS011;9435;52.122;5.502;2024-02-15T08:40:32;17.13;;;9.80;;
18610;SDS011;9435;52.122;5.502;2024-02-15T08:43:02;16.67;;;8.95;;
18610;SDS011;9435;52.122;5.502;2024-02-15T08:45:29;15.43;;;8.75;;
18610;SDS011;9435;52.122;5.502;2024-02-15T08:47:56;14.32;;;8.23;;
18610;SDS011;9435;52.122;5.502;2024-02-15T08:50:23;17.35;;;8.65;;
18610;SDS011;9435;52.122;5.502;2024-02-15T08:52:50;15.75;;;8.18;;
18610;SDS011;9435;52.122;5.502;2024-02-15T08:55:17;12.82;;;7.85;;
18610;SDS011;9435;52.122;5.502;2024-02-15T08:57:49;13.35;;;7.47;;
18610;SDS011;9435;52.122;5.502;2024-02-15T09:00:17;12.35;;;7.50;;
18610;SDS011;9435;52.122;5.502;2024-02-15T09:02:45;12.00;;;7.00;;
18610;SDS011;9435;52.122;5.502;2024-02-15T09:05:12;12.73;;;7.00;;
18610;SDS011;9435;52.122;5.502;2024-02-15T09:07:40;13.60;;;6.50;;
18610;SDS011;9435;52.122;5.502;2024-02-15T09:10:08;11.27;;;6.55;;
18610;SDS011;9435;52.122;5.502;2024-02-15T09:12:36;10.45;;;6.20;;
18610;SDS011;9435;52.122;5.502;2024-02-15T09:15:05;11.02;;;6.05;;
18610;SDS011;9435;52.122;5.502;2024-02-15T09:17:35;12.93;;;6.78;;
18610;SDS011;9435;52.122;5.502;2024-02-15T09:20:05;9.15;;;6.18;;
18610;SDS011;9435;52.122;5.502;2024-02-15T09:22:33;12.00;;;5.75;;
18610;SDS011;9435;52.122;5.502;2024-02-15T09:25:01;9.85;;;5.20;;
18610;SDS011;9435;52.122;5.502;2024-02-15T09:27:28;11.50;;;5.50;;
18610;SDS011;9435;52.122;5.502;2024-02-15T09:29:55;10.10;;;5.00;;
18610;SDS011;9435;52.122;5.502;2024-02-15T09:32:23;8.93;;;4.65;;
18610;SDS011;9435;52.122;5.502;2024-02-15T09:34:51;10.85;;;5.22;;
18610;SDS011;9435;52.122;5.502;2024-02-15T09:37:18;10.23;;;5.22;;
18610;SDS011;9435;52.122;5.502;2024-02-15T09:39:45;12.20;;;5.97;;
18610;SDS011;9435;52.122;5.502;2024-02-15T09:42:12;10.25;;;5.53;;
18610;SDS011;9435;52.122;5.502;2024-02-15T09:44:39;9.40;;;5.40;;
18610;SDS011;9435;52.122;5.502;2024-02-15T09:47:09;14.15;;;6.20;;
18610;SDS011;9435;52.122;5.502;2024-02-15T09:49:41;12.98;;;6.03;;
18610;SDS011;9435;52.122;5.502;2024-02-15T09:52:10;16.00;;;6.60;;
18610;SDS011;9435;52.122;5.502;2024-02-15T09:54:41;17.23;;;6.95;;
18610;SDS011;9435;52.122;5.502;2024-02-15T09:57:09;15.82;;;6.78;;
18610;SDS011;9435;52.122;5.502;2024-02-15T09:59:36;18.58;;;7.53;;
18610;SDS011;9435;52.122;5.502;2024-02-15T10:02:05;17.17;;;7.90;;
18610;SDS011;9435;52.122;5.502;2024-02-15T10:04:36;18.17;;;7.93;;
18610;SDS011;9435;52.122;5.502;2024-02-15T10:07:03;19.80;;;8.25;;
18610;SDS011;9435;52.122;5.502;2024-02-15T10:09:32;18.23;;;7.93;;
18610;SDS011;9435;52.122;5.502;2024-02-15T10:12:02;18.27;;;8.32;;
18610;SDS011;9435;52.122;5.502;2024-02-15T10:14:32;15.52;;;8.00;;
18610;SDS011;9435;52.122;5.502;2024-02-15T10:17:05;15.88;;;7.75;;
18610;SDS011;9435;52.122;5.502;2024-02-15T10:19:34;19.55;;;7.95;;
18610;SDS011;9435;52.122;5.502;2024-02-15T10:22:05;21.92;;;8.50;;
18610;SDS011;9435;52.122;5.502;2024-02-15T10:24:34;20.27;;;7.95;;
18610;SDS011;9435;52.122;5.502;2024-02-15T10:27:04;19.58;;;8.52;;
18610;SDS011;9435;52.122;5.502;2024-02-15T10:29:32;21.20;;;8.45;;
18610;SDS011;9435;52.122;5.502;2024-02-15T10:32:00;17.73;;;7.90;;
18610;SDS011;9435;52.122;5.502;2024-02-15T10:34:28;18.40;;;7.75;;
18610;SDS011;9435;52.122;5.502;2024-02-15T10:37:09;16.30;;;7.85;;
18610;SDS011;9435;52.122;5.502;2024-02-15T10:39:39;22.00;;;7.57;;
18610;SDS011;9435;52.122;5.502;2024-02-15T10:42:06;21.88;;;8.35;;
18610;SDS011;9435;52.122;5.502;2024-02-15T10:44:36;19.27;;;7.75;;
18610;SDS011;9435;52.122;5.502;2024-02-15T10:47:05;16.50;;;7.22;;
18610;SDS011;9435;52.122;5.502;2024-02-15T10:49:34;13.63;;;6.72;;
18610;SDS011;9435;52.122;5.502;2024-02-15T10:52:02;21.60;;;7.25;;
18610;SDS011;9435;52.122;5.502;2024-02-15T10:54:36;16.52;;;7.50;;
18610;SDS011;9435;52.122;5.502;2024-02-15T10:57:13;18.05;;;7.55;;
18610;SDS011;9435;52.122;5.502;2024-02-15T10:59:50;18.20;;;7.43;;
18610;SDS011;9435;52.122;5.502;2024-02-15T11:02:26;16.23;;;6.97;;
18610;SDS011;9435;52.122;5.502;2024-02-15T11:04:55;17.30;;;7.55;;
18610;SDS011;9435;52.122;5.502;2024-02-15T11:07:29;21.02;;;8.43;;
18610;SDS011;9435;52.122;5.502;2024-02-15T11:09:58;18.73;;;8.02;;
18610;SDS011;9435;52.122;5.502;2024-02-15T11:12:27;18.10;;;8.43;;
18610;SDS011;9435;52.122;5.502;2024-02-15T11:14:56;17.77;;;8.65;;
18610;SDS011;9435;52.122;5.502;2024-02-15T11:23:24;25.73;;;9.82;;
18610;SDS011;9435;52.122;5.502;2024-02-15T11:25:56;20.08;;;8.48;;
18610;SDS011;9435;52.122;5.502;2024-02-15T11:28:38;22.40;;;9.00;;
18610;SDS011;9435;52.122;5.502;2024-02-15T11:31:14;16.75;;;8.88;;
18610;SDS011;9435;52.122;5.502;2024-02-15T11:40:12;15.80;;;7.82;;
18610;SDS011;9435;52.122;5.502;2024-02-15T11:42:40;20.90;;;8.45;;
18610;SDS011;9435;52.122;5.502;2024-02-15T11:45:08;17.35;;;8.13;;
18610;SDS011;9435;52.122;5.502;2024-02-15T11:47:36;16.38;;;8.30;;
18610;SDS011;9435;52.122;5.502;2024-02-15T11:50:05;20.73;;;8.00;;
18610;SDS011;9435;52.122;5.502;2024-02-15T11:52:37;19.75;;;8.40;;
18610;SDS011;9435;52.122;5.502;2024-02-15T11:55:06;15.13;;;7.35;;
18610;SDS011;9435;52.122;5.502;2024-02-15T11:57:35;17.10;;;7.80;;
18610;SDS011;9435;52.122;5.502;2024-02-15T12:00:23;16.65;;;8.65;;
18610;SDS011;9435;52.122;5.502;2024-02-15T12:03:08;18.48;;;8.07;;
18610;SDS011;9435;52.122;5.502;2024-02-15T12:05:53;19.70;;;7.78;;
18610;SDS011;9435;52.122;5.502;2024-02-15T12:08:38;16.30;;;8.27;;
18610;SDS011;9435;52.122;5.502;2024-02-15T12:11:22;16.60;;;8.13;;
18610;SDS011;9435;52.122;5.502;2024-02-15T12:14:11;15.77;;;8.15;;
18610;SDS011;9435;52.122;5.502;2024-02-15T12:17:03;16.73;;;8.50;;
18610;SDS011;9435;52.122;5.502;2024-02-15T12:20:00;17.65;;;8.60;;
18610;SDS011;9435;52.122;5.502;2024-02-15T12:22:32;17.65;;;8.57;;
18610;SDS011;9435;52.122;5.502;2024-02-15T12:25:06;19.33;;;9.10;;
18610;SDS011;9435;52.122;5.502;2024-02-15T12:27:37;15.98;;;9.02;;
18610;SDS011;9435;52.122;5.502;2024-02-15T12:30:05;18.95;;;8.98;;
18610;SDS011;9435;52.122;5.502;2024-02-15T12:32:35;17.88;;;8.68;;
18610;SDS011;9435;52.122;5.502;2024-02-15T12:35:09;17.55;;;8.48;;
18610;SDS011;9435;52.122;5.502;2024-02-15T12:37:40;15.45;;;8.13;;
18610;SDS011;9435;52.122;5.502;2024-02-15T12:40:11;14.80;;;7.85;;
18610;SDS011;9435;52.122;5.502;2024-02-15T12:42:42;17.48;;;7.80;;
18610;SDS011;9435;52.122;5.502;2024-02-15T12:45:19;18.65;;;8.60;;
18610;SDS011;9435;52.122;5.502;2024-02-15T12:47:48;13.10;;;7.25;;
18610;SDS011;9435;52.122;5.502;2024-02-15T12:50:17;15.15;;;7.78;;
18610;SDS011;9435;52.122;5.502;2024-02-15T12:52:45;15.75;;;8.00;;
18610;SDS011;9435;52.122;5.502;2024-02-15T12:55:15;16.10;;;7.82;;
18610;SDS011;9435;52.122;5.502;2024-02-15T12:57:45;14.07;;;7.75;;
18610;SDS011;9435;52.122;5.502;2024-02-15T13:00:17;18.92;;;8.07;;
18610;SDS011;9435;52.122;5.502;2024-02-15T13:02:46;14.63;;;7.57;;
18610;SDS011;9435;52.122;5.502;2024-02-15T13:05:16;14.60;;;7.45;;
18610;SDS011;9435;52.122;5.502;2024-02-15T13:07:45;15.93;;;6.80;;
18610;SDS011;9435;52.122;5.502;2024-02-15T13:10:12;13.48;;;6.05;;
18610;SDS011;9435;52.122;5.502;2024-02-15T13:12:41;15.55;;;6.50;;
18610;SDS011;9435;52.122;5.502;2024-02-15T13:15:09;10.90;;;5.70;;
18610;SDS011;9435;52.122;5.502;2024-02-15T13:17:40;11.00;;;5.15;;
18610;SDS011;9435;52.122;5.502;2024-02-15T13:20:11;10.52;;;5.10;;
18610;SDS011;9435;52.122;5.502;2024-02-15T13:22:39;11.70;;;4.90;;
18610;SDS011;9435;52.122;5.502;2024-02-15T13:25:06;10.82;;;4.75;;
18610;SDS011;9435;52.122;5.502;2024-02-15T13:27:34;10.57;;;4.82;;
18610;SDS011;9435;52.122;5.502;2024-02-15T13:30:03;11.27;;;4.82;;
18610;SDS011;9435;52.122;5.502;2024-02-15T13:32:34;13.85;;;5.20;;
18610;SDS011;9435;52.122;5.502;2024-02-15T13:35:02;9.43;;;4.45;;
18610;SDS011;9435;52.122;5.502;2024-02-15T13:37:41;11.43;;;4.38;;
18610;SDS011;9435;52.122;5.502;2024-02-15T13:40:12;11.05;;;4.30;;
18610;SDS011;9435;52.122;5.502;2024-02-15T13:42:41;9.75;;;4.35;;
18610;SDS011;9435;52.122;5.502;2024-02-15T13:45:14;10.77;;;4.72;;
18610;SDS011;9435;52.122;5.502;2024-02-15T13:47:43;10.43;;;4.93;;
18610;SDS011;9435;52.122;5.502;2024-02-15T13:50:12;10.95;;;4.80;;
18610;SDS011;9435;52.122;5.502;2024-02-15T13:52:41;14.38;;;5.47;;
18610;SDS011;9435;52.122;5.502;2024-02-15T13:55:10;13.55;;;4.97;;
18610;SDS011;9435;52.122;5.502;2024-02-15T13:57:38;11.75;;;4.80;;
18610;SDS011;9435;52.122;5.502;2024-02-15T14:00:06;10.38;;;4.60;;
18610;SDS011;9435;52.122;5.502;2024-02-15T14:02:38;11.52;;;4.80;;
18610;SDS011;9435;52.122;5.502;2024-02-15T14:05:09;9.88;;;4.60;;
18610;SDS011;9435;52.122;5.502;2024-02-15T14:07:36;10.55;;;4.60;;
18610;SDS011;9435;52.122;5.502;2024-02-15T14:10:06;10.77;;;4.63;;
18610;SDS011;9435;52.122;5.502;2024-02-15T14:12:34;12.52;;;4.50;;
18610;SDS011;9435;52.122;5.502;2024-02-15T14:15:01;12.45;;;4.68;;
18610;SDS011;9435;52.122;5.502;2024-02-15T14:17:30;10.43;;;4.65;;
18610;SDS011;9435;52.122;5.502;2024-02-15T14:19:58;8.43;;;3.90;;
18610;SDS011;9435;52.122;5.502;2024-02-15T14:22:26;11.23;;;4.10;;
18610;SDS011;9435;52.122;5.502;2024-02-15T14:24:54;7.75;;;3.67;;
18610;SDS011;9435;52.122;5.502;2024-02-15T14:27:23;8.18;;;3.70;;
18610;SDS011;9435;52.122;5.502;2024-02-15T14:29:50;10.32;;;4.05;;
18610;SDS011;9435;52.122;5.502;2024-02-15T14:32:34;8.75;;;4.10;;
18610;SDS011;9435;52.122;5.502;2024-02-15T14:35:19;13.32;;;4.03;;
18610;SDS011;9435;52.122;5.502;2024-02-15T14:37:46;11.38;;;4.18;;
18610;SDS011;9435;52.122;5.502;2024-02-15T14:40:14;9.40;;;3.80;;
18610;SDS011;9435;52.122;5.502;2024-02-15T14:42:43;9.27;;;3.72;;
18610;SDS011;9435;52.122;5.502;2024-02-15T14:45:11;12.13;;;4.38;;
18610;SDS011;9435;52.122;5.502;2024-02-15T14:47:38;10.02;;;4.10;;
18610;SDS011;9435;52.122;5.502;2024-02-15T14:50:07;10.13;;;4.07;;
18610;SDS011;9435;52.122;5.502;2024-02-15T14:52:38;8.82;;;3.75;;
18610;SDS011;9435;52.122;5.502;2024-02-15T14:55:05;15.13;;;4.30;;
18610;SDS011;9435;52.122;5.502;2024-02-15T14:57:33;10.38;;;4.05;;
18610;SDS011;9435;52.122;5.502;2024-02-15T15:00:02;11.68;;;4.13;;
18610;SDS011;9435;52.122;5.502;2024-02-15T15:02:30;10.88;;;4.13;;
18610;SDS011;9435;52.122;5.502;2024-02-15T15:04:57;9.93;;;4.30;;
18610;SDS011;9435;52.122;5.502;2024-02-15T15:07:45;9.73;;;4.40;;